Time;durP1;ratioP1;P1;durP2;ratioP2;P2;SDS_P1;SDS_P2;PMS_P1;PMS_P2;Temp;Humidity;BMP_temperature;BMP_pressure;BME280_temperature;BME280_humidity;BME280_pressure;Samples;Min_cycle;Max_cycle;Signal;HPM_P1;HPM_P2
2021/03/30 00:00:43;;;;;;;2.75;1.40;;;20.80;39.30;;;;;;5079717;28;20020;-47
2021/03/30 00:03:10;;;;;;;2.40;1.60;;;20.80;39.50;;;;;;5082390;28;20030;-46
2021/03/30 00:05:35;;;;;;;4.30;1.58;;;20.80;39.40;;;;;;5088576;28;20032;-50
2021/03/30 00:08:01;;;;;;;4.07;1.63;;;20.80;39.40;;;;;;5080317;28;20032;-47
2021/03/30 00:10:40;;;;;;;3.25;1.63;;;20.80;39.30;;;;;;5093163;28;20063;-46
2021/03/30 00:13:06;;;;;;;3.20;1.25;;;20.80;39.40;;;;;;5093492;28;20098;-48
2021/03/30 00:15:32;;;;;;;3.58;1.58;;;20.80;39.40;;;;;;5090571;28;20060;-46
2021/03/30 00:17:57;;;;;;;2.95;1.20;;;20.90;39.50;;;;;;5076809;28;20258;-47
2021/03/30 00:20:23;;;;;;;4.20;1.63;;;20.80;39.50;;;;;;5076433;28;20033;-49
2021/03/30 00:22:49;;;;;;;4.57;1.58;;;20.80;39.50;;;;;;5081071;28;20093;-52
2021/03/30 00:25:15;;;;;;;2.53;1.45;;;20.80;39.50;;;;;;5073808;28;20032;-49
2021/03/30 00:27:41;;;;;;;3.03;1.30;;;20.80;39.40;;;;;;5093202;28;20110;-51
2021/03/30 00:30:09;;;;;;;2.25;1.30;;;20.90;39.60;;;;;;5074430;28;20032;-46
2021/03/30 00:32:35;;;;;;;3.00;1.40;;;20.80;39.50;;;;;;5090546;28;20485;-49
2021/03/30 00:35:00;;;;;;;2.97;1.42;;;20.80;39.40;;;;;;5079704;28;20043;-46
2021/03/30 00:37:26;;;;;;;2.58;1.63;;;20.80;39.50;;;;;;5091027;28;20054;-44
2021/03/30 00:39:52;;;;;;;5.07;1.40;;;20.80;39.50;;;;;;5092735;28;20354;-49
2021/03/30 00:42:20;;;;;;;2.58;1.23;;;20.80;39.70;;;;;;5091340;28;20045;-46
2021/03/30 00:44:46;;;;;;;3.08;1.30;;;20.80;39.50;;;;;;5074615;28;20465;-44
2021/03/30 00:47:14;;;;;;;2.78;1.45;;;20.80;39.40;;;;;;5089721;28;20034;-44
2021/03/30 00:49:41;;;;;;;2.85;1.60;;;20.80;39.60;;;;;;5091973;28;20036;-53
2021/03/30 00:52:07;;;;;;;1.70;1.10;;;20.80;39.60;;;;;;5079618;28;20154;-48
2021/03/30 00:54:33;;;;;;;3.55;1.52;;;20.80;39.60;;;;;;5081508;28;20048;-47
2021/03/30 00:56:58;;;;;;;2.30;1.33;;;20.80;39.50;;;;;;5083707;28;20074;-48
2021/03/30 00:59:25;;;;;;;3.20;1.65;;;20.80;39.50;;;;;;5081810;28;20047;-45
2021/03/30 01:01:51;;;;;;;2.53;1.50;;;20.80;39.50;;;;;;5092319;28;20111;-46
2021/03/30 01:04:17;;;;;;;2.63;1.30;;;20.80;39.50;;;;;;5084489;28;20028;-44
2021/03/30 01:06:42;;;;;;;3.85;1.52;;;20.80;39.40;;;;;;5081232;28;20039;-51
2021/03/30 01:09:11;;;;;;;3.30;1.60;;;20.80;39.50;;;;;;5072808;28;20052;-45
2021/03/30 01:11:54;;;;;;;1.77;1.35;;;20.80;39.60;;;;;;5087746;28;20034;-48
2021/03/30 01:14:52;;;;;;;2.45;1.50;;;20.80;39.50;;;;;;5072927;28;20081;-48
2021/03/30 01:17:42;;;;;;;4.10;1.30;;;20.80;39.40;;;;;;5043490;28;20389;-46
2021/03/30 01:20:39;;;;;;;2.72;1.40;;;20.80;39.40;;;;;;5084405;28;20028;-49
2021/03/30 01:23:29;;;;;;;2.53;1.50;;;20.80;39.50;;;;;;5072214;28;20036;-49
2021/03/30 01:26:36;;;;;;;2.35;1.30;;;20.80;39.40;;;;;;5073535;28;20033;-50
2021/03/30 01:29:12;;;;;;;2.65;1.58;;;20.80;39.50;;;;;;5085841;28;20221;-45
2021/03/30 01:31:41;;;;;;;4.03;1.98;;;20.80;39.40;;;;;;5082694;28;20030;-49
2021/03/30 01:34:10;;;;;;;5.18;1.63;;;20.80;39.50;;;;;;5088814;28;20028;-54
2021/03/30 01:36:39;;;;;;;2.15;1.73;;;20.80;39.50;;;;;;5073390;28;20186;-51
2021/03/30 01:39:08;;;;;;;2.85;1.65;;;20.70;39.40;;;;;;5082021;28;20477;-48
2021/03/30 01:41:34;;;;;;;2.58;1.45;;;20.80;39.50;;;;;;5092531;28;20020;-46
2021/03/30 01:44:01;;;;;;;2.67;1.33;;;20.80;39.40;;;;;;5089702;28;20023;-44
2021/03/30 01:46:30;;;;;;;4.72;1.70;;;20.80;39.40;;;;;;5078283;28;20038;-48
2021/03/30 01:48:58;;;;;;;2.08;1.45;;;20.80;39.50;;;;;;5090706;28;20028;-50
2021/03/30 01:51:24;;;;;;;2.28;1.40;;;20.70;39.40;;;;;;5090034;28;20024;-53
2021/03/30 01:53:50;;;;;;;2.92;1.65;;;20.80;39.40;;;;;;5078573;28;20047;-47
2021/03/30 01:56:18;;;;;;;3.00;1.50;;;20.80;39.50;;;;;;5073777;28;20040;-50
2021/03/30 01:58:45;;;;;;;3.10;1.52;;;20.70;39.40;;;;;;5090630;28;20202;-53
2021/03/30 02:01:14;;;;;;;2.67;1.40;;;20.80;39.40;;;;;;5082298;28;20052;-47
2021/03/30 02:03:40;;;;;;;3.63;1.90;;;20.70;39.50;;;;;;5080630;28;20024;-47
2021/03/30 02:06:07;;;;;;;2.05;1.45;;;20.70;39.50;;;;;;5085045;28;20040;-48
2021/03/30 02:08:34;;;;;;;3.35;1.42;;;20.70;39.50;;;;;;5074764;28;20035;-50
2021/03/30 02:11:00;;;;;;;2.28;1.58;;;20.80;39.60;;;;;;5091137;28;20025;-50
2021/03/30 02:16:19;;;;;;;2.90;1.55;;;20.70;39.50;;;;;;5083489;28;20028;-46
2021/03/30 02:19:08;;;;;;;2.15;1.40;;;20.80;39.60;;;;;;5089178;28;20030;-50
2021/03/30 02:21:38;;;;;;;4.30;1.55;;;20.70;39.40;;;;;;5090781;28;20214;-47
2021/03/30 02:24:10;;;;;;;2.08;1.10;;;20.70;39.40;;;;;;5080392;28;20028;-48
2021/03/30 02:26:38;;;;;;;1.80;1.25;;;20.70;39.60;;;;;;5072045;28;20412;-45
2021/03/30 02:29:08;;;;;;;3.97;1.70;;;20.70;39.50;;;;;;5070617;28;20572;-49
2021/03/30 02:31:35;;;;;;;2.60;1.63;;;20.70;39.50;;;;;;5075651;28;20040;-49
2021/03/30 02:34:04;;;;;;;2.13;1.33;;;20.70;39.50;;;;;;5072714;28;20028;-49
2021/03/30 02:36:31;;;;;;;7.60;1.42;;;20.70;39.50;;;;;;5071827;28;20044;-51
2021/03/30 02:39:04;;;;;;;3.92;1.48;;;20.70;39.60;;;;;;5081727;28;20074;-51
2021/03/30 02:41:30;;;;;;;2.03;1.38;;;20.70;39.60;;;;;;5086874;28;20024;-52
2021/03/30 02:43:58;;;;;;;2.25;1.23;;;20.70;39.50;;;;;;5090397;28;20524;-46
2021/03/30 02:46:25;;;;;;;2.25;1.30;;;20.70;39.50;;;;;;5079755;28;20090;-50
2021/03/30 02:48:52;;;;;;;4.13;1.63;;;20.70;39.60;;;;;;5088414;28;20035;-47
2021/03/30 02:51:21;;;;;;;3.03;1.52;;;20.70;39.60;;;;;;5085751;28;20402;-49
2021/03/30 02:53:47;;;;;;;3.17;1.90;;;20.70;39.60;;;;;;5089700;28;20036;-50
2021/03/30 02:56:13;;;;;;;3.25;1.67;;;20.70;39.60;;;;;;5090101;28;20044;-48
2021/03/30 02:58:39;;;;;;;2.85;1.80;;;20.70;39.50;;;;;;5074796;28;20039;-47
2021/03/30 03:01:06;;;;;;;3.10;1.58;;;20.70;39.60;;;;;;5082801;28;20020;-48
2021/03/30 03:03:34;;;;;;;3.20;1.55;;;20.70;39.50;;;;;;5091033;28;20028;-51
2021/03/30 03:06:01;;;;;;;3.13;1.80;;;20.70;39.50;;;;;;5083583;28;20390;-49
2021/03/30 03:08:29;;;;;;;2.95;1.50;;;20.70;39.60;;;;;;5072325;28;20040;-50
2021/03/30 03:10:56;;;;;;;2.40;1.30;;;20.70;39.60;;;;;;5072700;28;20074;-49
2021/03/30 03:13:24;;;;;;;3.08;1.35;;;20.70;39.50;;;;;;5077796;28;20501;-51
2021/03/30 03:15:50;;;;;;;2.28;1.42;;;20.70;39.60;;;;;;5086343;28;20028;-50
2021/03/30 03:18:17;;;;;;;3.13;1.77;;;20.70;39.60;;;;;;5085846;28;20020;-47
2021/03/30 03:20:47;;;;;;;2.63;1.65;;;20.70;39.50;;;;;;5077111;28;20107;-44
2021/03/30 03:23:13;;;;;;;6.15;2.30;;;20.70;39.60;;;;;;5090364;28;20023;-49
2021/03/30 03:25:40;;;;;;;5.43;1.85;;;20.70;39.60;;;;;;5080603;28;20028;-48
2021/03/30 03:28:05;;;;;;;2.95;1.90;;;20.70;39.60;;;;;;5088475;28;20079;-50
2021/03/30 03:30:32;;;;;;;2.30;1.50;;;20.70;39.60;;;;;;5087213;28;20454;-45
2021/03/30 03:33:08;;;;;;;3.25;1.40;;;20.70;39.70;;;;;;5092147;28;20526;-50
2021/03/30 03:35:35;;;;;;;3.85;1.58;;;20.70;39.70;;;;;;5094544;28;20032;-47
2021/03/30 03:38:02;;;;;;;3.30;1.98;;;20.70;39.60;;;;;;5081305;28;20059;-46
2021/03/30 03:40:28;;;;;;;2.28;1.52;;;20.70;39.60;;;;;;5074840;28;20029;-49
2021/03/30 03:42:55;;;;;;;2.90;1.65;;;20.70;39.60;;;;;;5083492;28;20077;-49
2021/03/30 03:45:21;;;;;;;3.05;1.80;;;20.70;39.60;;;;;;5093987;28;20032;-49
2021/03/30 03:47:46;;;;;;;2.83;1.67;;;20.70;39.60;;;;;;5079962;28;20036;-51
2021/03/30 03:50:13;;;;;;;4.35;1.60;;;20.70;39.70;;;;;;5074527;28;20415;-51
2021/03/30 03:52:44;;;;;;;2.85;1.63;;;20.70;39.60;;;;;;5088823;28;20111;-47
2021/03/30 03:55:13;;;;;;;2.75;1.60;;;20.70;39.60;;;;;;5093093;28;20094;-48
2021/03/30 03:57:51;;;;;;;2.63;1.67;;;20.70;39.70;;;;;;5089205;28;20036;-48
2021/03/30 04:00:20;;;;;;;3.25;1.60;;;20.70;39.60;;;;;;5074644;28;20413;-52
2021/03/30 04:02:49;;;;;;;2.45;1.42;;;20.70;39.60;;;;;;5088914;28;20024;-53
2021/03/30 04:05:18;;;;;;;3.25;1.70;;;20.70;39.70;;;;;;5088380;28;20103;-48
2021/03/30 04:08:12;;;;;;;2.33;1.80;;;20.70;39.60;;;;;;5084740;28;20064;-54
2021/03/30 04:10:41;;;;;;;4.50;1.92;;;20.70;39.60;;;;;;5067381;28;20043;-47
2021/03/30 04:13:07;;;;;;;4.43;1.65;;;20.70;39.60;;;;;;5083280;28;20020;-49
2021/03/30 04:15:33;;;;;;;3.50;1.50;;;20.70;39.50;;;;;;5083656;28;20042;-50
2021/03/30 04:17:59;;;;;;;6.10;1.85;;;20.70;39.70;;;;;;5083705;28;20059;-46
2021/03/30 04:20:25;;;;;;;3.60;1.58;;;20.70;39.80;;;;;;5084657;28;20039;-46
2021/03/30 04:22:58;;;;;;;2.55;1.60;;;20.70;39.80;;;;;;5084620;28;20020;-46
2021/03/30 04:25:25;;;;;;;4.15;1.75;;;20.70;39.70;;;;;;5083628;28;20376;-44
2021/03/30 04:27:51;;;;;;;3.38;1.58;;;20.70;39.70;;;;;;5083918;28;20035;-50
2021/03/30 04:30:17;;;;;;;4.22;1.90;;;20.70;39.70;;;;;;5084651;28;20422;-44
2021/03/30 04:32:43;;;;;;;3.15;2.00;;;20.70;39.80;;;;;;5083673;28;20458;-49
2021/03/30 04:35:11;;;;;;;3.28;1.70;;;20.70;39.70;;;;;;5083117;28;20047;-48
2021/03/30 04:37:37;;;;;;;2.70;1.40;;;20.70;39.70;;;;;;5079851;28;20063;-49
2021/03/30 04:40:05;;;;;;;3.78;1.70;;;20.70;39.70;;;;;;5081101;28;20028;-48
2021/03/30 04:42:31;;;;;;;3.38;1.55;;;20.70;39.60;;;;;;5083340;28;20027;-53
2021/03/30 04:44:57;;;;;;;3.58;1.30;;;20.70;39.70;;;;;;5080144;28;20029;-48
2021/03/30 04:47:23;;;;;;;3.50;1.73;;;20.70;39.70;;;;;;5085248;28;20032;-48
2021/03/30 04:49:50;;;;;;;3.05;1.60;;;20.70;39.60;;;;;;5082942;28;20039;-49
2021/03/30 04:52:16;;;;;;;3.72;1.85;;;20.70;39.60;;;;;;5082096;28;20412;-46
2021/03/30 04:54:41;;;;;;;5.00;1.65;;;20.70;39.60;;;;;;5084828;28;20040;-46
2021/03/30 04:57:07;;;;;;;3.10;1.70;;;20.70;39.60;;;;;;5081247;28;20035;-49
2021/03/30 04:59:33;;;;;;;5.80;1.90;;;20.70;39.60;;;;;;5083629;28;20043;-51
2021/03/30 05:01:59;;;;;;;2.90;1.60;;;20.70;39.50;;;;;;5077839;28;20071;-47
2021/03/30 05:04:24;;;;;;;2.42;1.58;;;20.70;39.50;;;;;;5083243;28;20173;-48
2021/03/30 05:06:50;;;;;;;3.00;1.65;;;20.70;39.50;;;;;;5082137;28;20077;-48
2021/03/30 05:09:16;;;;;;;3.47;1.85;;;20.70;39.50;;;;;;5086636;28;20126;-51
2021/03/30 05:11:41;;;;;;;2.78;1.73;;;20.70;39.50;;;;;;5088113;28;20109;-47
2021/03/30 05:14:07;;;;;;;2.78;2.00;;;20.70;39.50;;;;;;5078012;28;20031;-45
2021/03/30 05:16:33;;;;;;;4.20;1.83;;;20.70;39.50;;;;;;5076766;28;20072;-47
2021/03/30 05:18:59;;;;;;;2.97;1.80;;;20.70;39.40;;;;;;5070632;28;20035;-46
2021/03/30 05:21:24;;;;;;;3.65;1.77;;;20.70;39.40;;;;;;5087412;28;20028;-52
2021/03/30 05:23:50;;;;;;;3.38;1.75;;;20.70;39.50;;;;;;5072483;28;20054;-51
2021/03/30 05:26:16;;;;;;;2.38;1.45;;;20.70;39.40;;;;;;5072927;28;20149;-50
2021/03/30 05:28:41;;;;;;;3.00;1.50;;;20.70;39.40;;;;;;5071599;28;20025;-51
2021/03/30 05:31:07;;;;;;;4.07;1.90;;;20.70;39.40;;;;;;5084841;28;20028;-47
2021/03/30 05:33:33;;;;;;;3.40;1.98;;;20.70;39.40;;;;;;5083009;28;20058;-46
2021/03/30 05:35:58;;;;;;;2.92;1.85;;;20.70;39.50;;;;;;5080973;28;20048;-47
2021/03/30 05:38:24;;;;;;;5.13;1.67;;;20.70;39.60;;;;;;5083618;28;20024;-49
2021/03/30 05:40:50;;;;;;;4.65;2.22;;;20.70;39.70;;;;;;5084411;28;20032;-51
2021/03/30 05:43:17;;;;;;;5.10;1.73;;;20.70;39.90;;;;;;5085509;28;20032;-51
2021/03/30 05:45:44;;;;;;;2.65;1.58;;;20.70;40.10;;;;;;5084246;28;20317;-48
2021/03/30 05:48:13;;;;;;;6.30;3.22;;;20.70;40.10;;;;;;5073489;28;20027;-47
2021/03/30 05:50:39;;;;;;;5.78;3.15;;;20.70;36.50;;;;;;5091993;28;20468;-48
2021/03/30 05:53:09;;;;;;;4.82;2.53;;;20.60;35.80;;;;;;5079848;28;20035;-48
2021/03/30 05:55:42;;;;;;;5.38;2.63;;;20.40;36.40;;;;;;5088982;28;20392;-49
2021/03/30 05:58:09;;;;;;;5.07;2.78;;;20.50;36.80;;;;;;5090553;28;20586;-47
2021/03/30 06:00:45;;;;;;;7.65;2.50;;;20.50;36.40;;;;;;5075631;28;21489;-47
2021/03/30 06:03:15;;;;;;;3.92;2.10;;;20.50;35.90;;;;;;5082362;28;20029;-48
2021/03/30 06:05:42;;;;;;;12.35;3.50;;;20.50;36.80;;;;;;5077049;28;20051;-48
2021/03/30 06:08:07;;;;;;;6.97;2.45;;;20.50;38.90;;;;;;5070368;28;20583;-51
2021/03/30 06:10:35;;;;;;;8.25;3.05;;;20.60;39.00;;;;;;5091833;28;20039;-48
2021/03/30 06:13:03;;;;;;;9.43;3.65;;;20.60;39.70;;;;;;5089745;28;20032;-50
2021/03/30 06:15:31;;;;;;;7.38;2.60;;;20.60;41.10;;;;;;5083505;28;20032;-46
2021/03/30 06:17:58;;;;;;;10.90;3.22;;;20.70;41.70;;;;;;5069520;28;20449;-50
2021/03/30 06:20:24;;;;;;;10.13;3.00;;;20.60;41.70;;;;;;5071966;28;20025;-52
2021/03/30 06:22:55;;;;;;;6.85;2.85;;;20.70;42.00;;;;;;5072394;28;20031;-53
2021/03/30 06:25:39;;;;;;;6.93;2.40;;;20.70;42.10;;;;;;5071716;28;20473;-50
2021/03/30 06:28:25;;;;;;;10.50;2.88;;;20.70;42.20;;;;;;5082509;28;20115;-48
2021/03/30 06:31:03;;;;;;;12.32;3.38;;;20.60;42.20;;;;;;5070494;28;20884;-53
2021/03/30 06:33:31;;;;;;;11.10;2.90;;;20.70;42.30;;;;;;5071954;28;20043;-48
2021/03/30 06:36:10;;;;;;;7.82;3.15;;;20.70;42.50;;;;;;5082550;28;20086;-47
2021/03/30 06:39:04;;;;;;;7.78;2.42;;;20.70;42.40;;;;;;5083330;28;20024;-46
2021/03/30 06:46:51;;;;;;;6.40;2.53;;;20.70;42.50;;;;;;5081026;28;20056;-46
2021/03/30 06:49:21;;;;;;;6.15;2.80;;;20.70;42.60;;;;;;5083109;28;20024;-50
2021/03/30 06:51:48;;;;;;;11.93;3.17;;;20.70;42.60;;;;;;5071554;28;20048;-48
2021/03/30 06:54:14;;;;;;;8.05;3.42;;;20.70;42.60;;;;;;5078073;28;20457;-46
2021/03/30 06:56:54;;;;;;;7.93;2.45;;;20.70;42.60;;;;;;5072146;28;20048;-48
2021/03/30 06:59:21;;;;;;;9.82;2.45;;;20.70;42.60;;;;;;5071440;28;20032;-47
2021/03/30 07:01:55;;;;;;;7.57;2.65;;;20.70;42.70;;;;;;5090442;28;20080;-47
2021/03/30 07:04:22;;;;;;;3.95;2.05;;;20.70;42.60;;;;;;5083839;28;20043;-46
2021/03/30 07:06:54;;;;;;;6.78;2.63;;;20.70;43.10;;;;;;5084472;28;20478;-47
2021/03/30 07:09:23;;;;;;;6.28;2.80;;;20.70;42.50;;;;;;5073974;28;20137;-52
2021/03/30 07:11:50;;;;;;;6.30;2.78;;;20.70;42.70;;;;;;5087215;28;20036;-50
2021/03/30 07:14:16;;;;;;;6.65;3.60;;;20.80;42.30;;;;;;5092876;28;20040;-50
2021/03/30 07:16:56;;;;;;;4.90;1.80;;;20.80;42.50;;;;;;5094386;28;20106;-47
2021/03/30 07:19:24;;;;;;;6.30;2.28;;;20.80;42.50;;;;;;5086318;28;20025;-46
2021/03/30 07:22:04;;;;;;;4.78;2.25;;;20.70;42.40;;;;;;5083044;28;20029;-52
2021/03/30 07:24:44;;;;;;;6.25;2.38;;;20.70;42.30;;;;;;5094205;28;20024;-49
2021/03/30 07:27:17;;;;;;;5.13;2.20;;;20.80;42.30;;;;;;5090649;28;20347;-46
2021/03/30 07:29:46;;;;;;;6.30;2.20;;;20.80;42.30;;;;;;5082620;28;20028;-46
2021/03/30 07:32:29;;;;;;;7.05;2.45;;;20.80;42.30;;;;;;5088095;28;20020;-48
2021/03/30 07:35:15;;;;;;;6.25;2.38;;;20.80;42.20;;;;;;5081545;28;20039;-48
2021/03/30 07:38:07;;;;;;;7.40;2.45;;;20.80;42.20;;;;;;5090539;28;20024;-51
2021/03/30 07:40:35;;;;;;;;;;;20.80;42.10;;;;;;5094696;28;20035;-47
2021/03/30 07:43:02;;;;;;;4.35;2.20;;;20.80;42.10;;;;;;5076126;28;19908;-46
2021/03/30 07:45:31;;;;;;;6.88;2.40;;;20.80;42.00;;;;;;5077224;28;20071;-46
2021/03/30 07:47:57;;;;;;;5.93;2.38;;;20.80;42.00;;;;;;5074950;28;20028;-46
2021/03/30 07:50:44;;;;;;;7.32;3.10;;;20.90;42.10;;;;;;5075947;28;20024;-48
2021/03/30 07:53:50;;;;;;;4.57;2.17;;;20.80;42.00;;;;;;5073329;28;20032;-47
2021/03/30 07:56:21;;;;;;;4.95;2.10;;;20.80;42.00;;;;;;5091821;28;20054;-45
2021/03/30 07:58:47;;;;;;;4.75;2.25;;;20.80;42.00;;;;;;5090989;28;20028;-46
2021/03/30 08:01:14;;;;;;;5.00;2.17;;;20.80;41.90;;;;;;5073838;28;20025;-46
2021/03/30 08:03:42;;;;;;;5.43;2.17;;;20.80;41.90;;;;;;5075923;28;20049;-45
2021/03/30 08:06:46;;;;;;;4.57;2.50;;;20.80;41.90;;;;;;5076850;28;20048;-51
2021/03/30 08:09:16;;;;;;;4.78;2.35;;;20.80;41.90;;;;;;5019262;28;20698;-46
2021/03/30 08:11:51;;;;;;;4.50;2.38;;;20.80;41.90;;;;;;5012125;28;20072;-46
2021/03/30 08:14:20;;;;;;;6.50;2.60;;;20.80;41.90;;;;;;5019227;28;20042;-47
2021/03/30 08:16:50;;;;;;;5.72;2.22;;;20.90;41.90;;;;;;5025360;28;20064;-45
2021/03/30 08:19:16;;;;;;;6.07;2.35;;;20.90;42.10;;;;;;5023352;28;20044;-45
2021/03/30 08:21:53;;;;;;;3.08;1.95;;;20.90;41.90;;;;;;5015762;28;20483;-49
2021/03/30 08:24:20;;;;;;;4.65;1.95;;;20.80;41.90;;;;;;5030317;28;20585;-47
2021/03/30 08:26:47;;;;;;;4.30;2.25;;;20.80;41.90;;;;;;5031113;28;20534;-46
2021/03/30 08:29:15;;;;;;;4.90;2.25;;;20.90;41.90;;;;;;5013548;28;20034;-52
2021/03/30 08:31:51;;;;;;;3.20;2.10;;;20.90;41.90;;;;;;5023719;28;20071;-47
2021/03/30 08:34:22;;;;;;;3.97;2.22;;;20.90;41.90;;;;;;5027547;28;20045;-47
2021/03/30 08:36:51;;;;;;;4.47;2.50;;;20.90;41.90;;;;;;5030752;28;20041;-52
2021/03/30 08:39:19;;;;;;;5.55;2.50;;;20.90;41.90;;;;;;5038796;28;20052;-52
2021/03/30 08:41:54;;;;;;;6.57;2.00;;;20.90;41.90;;;;;;5076410;28;20021;-50
2021/03/30 08:44:22;;;;;;;4.95;2.25;;;20.90;41.90;;;;;;5085730;28;20092;-50
2021/03/30 08:46:54;;;;;;;5.20;2.30;;;20.90;41.90;;;;;;5078003;28;20040;-50
2021/03/30 08:49:32;;;;;;;4.68;2.30;;;20.90;41.90;;;;;;5075571;28;20024;-46
2021/03/30 08:52:07;;;;;;;6.60;2.63;;;20.90;41.90;;;;;;5091681;28;20060;-46
2021/03/30 08:54:42;;;;;;;4.13;2.25;;;20.90;41.90;;;;;;5093055;28;20028;-46
2021/03/30 08:57:11;;;;;;;4.82;2.13;;;21.00;41.90;;;;;;5078688;28;20384;-46
2021/03/30 08:59:39;;;;;;;4.35;1.98;;;20.90;41.90;;;;;;5081556;28;20157;-46
2021/03/30 09:02:08;;;;;;;5.00;2.35;;;20.90;41.80;;;;;;5085407;28;20032;-45
2021/03/30 09:04:39;;;;;;;4.70;1.90;;;20.90;41.90;;;;;;5080354;28;20012;-50
2021/03/30 09:07:08;;;;;;;4.10;2.00;;;20.90;41.90;;;;;;5081017;28;20036;-43
2021/03/30 09:09:35;;;;;;;4.47;2.05;;;20.90;42.50;;;;;;5072889;28;20508;-46
2021/03/30 09:12:30;;;;;;;5.65;2.38;;;20.90;41.90;;;;;;5073549;28;20024;-46
2021/03/30 09:15:01;;;;;;;4.85;2.30;;;20.90;41.90;;;;;;5065831;28;20052;-50
2021/03/30 09:17:28;;;;;;;3.50;2.03;;;20.90;41.90;;;;;;5073060;28;20148;-46
2021/03/30 09:19:54;;;;;;;5.25;2.17;;;20.90;41.90;;;;;;5072531;28;20033;-53
2021/03/30 09:22:31;;;;;;;4.55;2.00;;;21.00;41.90;;;;;;5084176;28;20024;-43
2021/03/30 09:25:07;;;;;;;3.75;2.30;;;20.90;41.80;;;;;;5085374;28;20118;-49
2021/03/30 09:27:36;;;;;;;4.93;2.58;;;20.90;41.80;;;;;;5077255;28;20412;-49
2021/03/30 09:30:06;;;;;;;3.13;1.98;;;20.90;41.90;;;;;;5071743;28;20037;-48
2021/03/30 09:32:33;;;;;;;3.88;2.17;;;20.90;41.90;;;;;;5075353;28;20063;-49
2021/03/30 09:35:17;;;;;;;5.88;2.65;;;21.00;41.90;;;;;;5087491;28;20516;-50
2021/03/30 09:37:53;;;;;;;3.08;2.10;;;20.90;41.80;;;;;;5089945;28;20056;-43
2021/03/30 09:40:40;;;;;;;4.80;2.22;;;21.00;41.90;;;;;;5072159;28;20034;-49
2021/03/30 09:43:12;;;;;;;4.40;2.30;;;20.90;41.80;;;;;;5075140;28;20560;-49
2021/03/30 09:45:40;;;;;;;3.85;2.28;;;21.00;41.90;;;;;;5077346;28;20024;-51
2021/03/30 09:48:11;;;;;;;5.68;2.50;;;21.00;41.80;;;;;;5078139;28;20059;-52
2021/03/30 09:50:49;;;;;;;3.60;2.03;;;21.00;41.90;;;;;;5088589;28;20024;-48
2021/03/30 09:53:15;;;;;;;4.60;2.20;;;21.00;41.80;;;;;;5080823;28;20256;-46
2021/03/30 09:55:46;;;;;;;5.15;1.90;;;21.00;41.80;;;;;;5091693;28;20039;-48
2021/03/30 09:58:18;;;;;;;2.83;2.03;;;21.00;41.80;;;;;;5090402;28;20485;-45
2021/03/30 10:00:49;;;;;;;4.40;2.33;;;21.00;41.80;;;;;;5092132;28;20024;-48
2021/03/30 10:03:16;;;;;;;4.30;2.40;;;21.00;41.80;;;;;;5076198;28;20583;-45
2021/03/30 10:05:44;;;;;;;4.10;2.38;;;21.00;41.90;;;;;;5091539;28;20051;-51
2021/03/30 10:08:20;;;;;;;2.70;1.88;;;21.00;41.80;;;;;;5081818;28;20031;-47
2021/03/30 10:10:48;;;;;;;3.03;2.05;;;21.00;41.80;;;;;;5083865;28;20338;-47
2021/03/30 10:13:26;;;;;;;4.75;2.25;;;21.00;41.80;;;;;;5087389;28;20354;-45
2021/03/30 10:15:53;;;;;;;4.13;2.13;;;21.00;41.80;;;;;;5085250;28;20033;-46
2021/03/30 10:18:22;;;;;;;4.20;2.38;;;21.00;41.70;;;;;;5076270;28;20123;-49
2021/03/30 10:20:50;;;;;;;2.63;1.70;;;21.00;41.70;;;;;;5082453;28;20502;-46
2021/03/30 10:23:19;;;;;;;5.38;2.20;;;21.00;41.70;;;;;;5075884;28;20029;-46
2021/03/30 10:25:45;;;;;;;4.15;1.98;;;21.00;41.70;;;;;;5081791;28;20021;-46
2021/03/30 10:28:11;;;;;;;3.53;2.10;;;21.00;41.70;;;;;;5073305;28;20047;-46
2021/03/30 10:30:42;;;;;;;4.32;2.13;;;21.00;41.70;;;;;;5079892;28;20036;-50
2021/03/30 10:33:13;;;;;;;3.40;2.33;;;21.00;41.70;;;;;;5071360;28;20126;-48
2021/03/30 10:35:39;;;;;;;4.85;2.20;;;21.00;41.70;;;;;;5071685;28;20040;-49
2021/03/30 10:38:05;;;;;;;3.83;2.08;;;21.00;41.70;;;;;;5072304;28;20040;-47
2021/03/30 10:40:37;;;;;;;3.67;1.75;;;21.10;41.70;;;;;;5070169;28;20039;-49
2021/03/30 10:43:22;;;;;;;2.85;1.90;;;21.00;41.60;;;;;;5084282;28;20031;-46
2021/03/30 10:45:48;;;;;;;3.58;2.20;;;21.00;41.60;;;;;;5084858;28;20477;-48
2021/03/30 10:48:14;;;;;;;3.70;2.10;;;21.10;41.70;;;;;;5076116;28;20028;-48
2021/03/30 10:50:40;;;;;;;2.95;1.90;;;21.10;41.70;;;;;;5089202;28;20028;-46
2021/03/30 10:53:07;;;;;;;3.40;2.03;;;21.10;41.60;;;;;;5085470;28;20381;-47
2021/03/30 10:55:33;;;;;;;2.67;1.70;;;21.10;41.70;;;;;;5089564;28;20039;-49
2021/03/30 10:58:04;;;;;;;2.95;2.25;;;21.00;41.60;;;;;;5080089;28;20389;-52
2021/03/30 11:00:30;;;;;;;3.75;1.60;;;21.10;41.60;;;;;;5071300;28;20036;-49
2021/03/30 11:02:57;;;;;;;2.80;1.83;;;21.10;41.70;;;;;;5080217;28;20028;-48
2021/03/30 11:05:22;;;;;;;2.92;2.15;;;21.00;41.60;;;;;;5073945;28;20040;-49
2021/03/30 11:07:48;;;;;;;2.55;1.80;;;21.00;41.60;;;;;;5079315;28;20032;-49
2021/03/30 11:10:14;;;;;;;4.47;2.05;;;21.00;41.50;;;;;;5089921;28;20032;-50
2021/03/30 11:12:40;;;;;;;4.85;1.90;;;21.10;41.60;;;;;;5083443;28;20024;-48
2021/03/30 11:15:07;;;;;;;3.47;1.85;;;21.00;41.50;;;;;;5083800;28;20507;-51
2021/03/30 11:17:32;;;;;;;2.53;1.70;;;21.10;41.50;;;;;;5086289;28;20039;-51
2021/03/30 11:19:58;;;;;;;3.47;1.60;;;21.10;41.50;;;;;;5088002;28;20032;-51
2021/03/30 11:22:24;;;;;;;5.00;2.42;;;21.10;41.50;;;;;;5089629;28;20038;-48
2021/03/30 11:24:54;;;;;;;3.25;1.63;;;21.10;41.50;;;;;;5075063;28;20039;-49
2021/03/30 11:27:20;;;;;;;3.83;1.50;;;21.10;41.50;;;;;;5086205;28;20282;-47
2021/03/30 11:29:53;;;;;;;4.75;2.05;;;21.10;41.50;;;;;;5083977;28;20060;-52
2021/03/30 11:32:43;;;;;;;3.03;1.63;;;21.10;41.50;;;;;;5078562;28;20039;-45
2021/03/30 11:35:16;;;;;;;3.13;1.95;;;21.00;41.50;;;;;;5078647;28;20024;-52
2021/03/30 11:37:49;;;;;;;2.72;1.70;;;21.10;41.50;;;;;;5079142;28;20024;-50
2021/03/30 11:40:14;;;;;;;2.97;1.67;;;21.10;41.40;;;;;;5078942;28;20119;-48
2021/03/30 11:42:40;;;;;;;2.30;1.50;;;21.10;41.50;;;;;;5075063;28;20089;-47
2021/03/30 11:45:07;;;;;;;2.42;1.73;;;21.10;41.50;;;;;;5077538;28;20040;-48
2021/03/30 11:47:33;;;;;;;2.63;1.60;;;21.10;41.40;;;;;;5073337;28;20507;-47
2021/03/30 11:49:58;;;;;;;3.83;1.60;;;21.10;41.50;;;;;;5085008;28;20028;-46
2021/03/30 11:52:24;;;;;;;3.55;1.70;;;21.10;41.40;;;;;;5081894;28;20043;-45
2021/03/30 11:54:50;;;;;;;2.28;1.40;;;21.10;41.40;;;;;;5083004;28;20036;-45
2021/03/30 11:57:18;;;;;;;3.55;1.33;;;21.10;41.40;;;;;;5089691;28;20115;-47
2021/03/30 11:59:44;;;;;;;3.70;1.98;;;21.10;41.70;;;;;;5077072;28;20020;-46
2021/03/30 12:02:09;;;;;;;2.92;1.75;;;21.10;41.90;;;;;;5075148;28;20024;-49
2021/03/30 12:04:35;;;;;;;3.40;1.50;;;21.10;42.20;;;;;;5084890;28;20114;-46
2021/03/30 12:07:00;;;;;;;2.05;1.50;;;21.10;42.00;;;;;;5084125;28;20024;-52
2021/03/30 12:09:26;;;;;;;2.08;1.35;;;21.10;42.90;;;;;;5090430;28;20048;-49
2021/03/30 12:11:52;;;;;;;2.47;1.65;;;21.10;42.10;;;;;;5090750;28;20020;-48
2021/03/30 12:14:18;;;;;;;1.75;1.45;;;21.10;42.10;;;;;;5087922;28;20063;-53
2021/03/30 12:16:46;;;;;;;1.80;1.35;;;21.10;42.10;;;;;;5080954;28;20028;-48
2021/03/30 12:19:13;;;;;;;4.10;1.70;;;21.10;42.10;;;;;;5079758;28;20025;-49
2021/03/30 12:21:39;;;;;;;2.20;1.30;;;21.10;42.10;;;;;;5073942;28;20087;-47
2021/03/30 12:24:05;;;;;;;3.10;1.50;;;21.10;42.10;;;;;;5087053;28;20040;-52
2021/03/30 12:26:30;;;;;;;2.55;1.40;;;21.10;42.20;;;;;;5074548;28;20378;-49
2021/03/30 12:28:56;;;;;;;2.33;1.52;;;21.10;42.20;;;;;;5073657;28;20104;-48
2021/03/30 12:31:22;;;;;;;3.03;1.50;;;21.10;42.20;;;;;;5073813;28;20028;-46
2021/03/30 12:33:47;;;;;;;2.08;1.10;;;21.10;42.20;;;;;;5074517;28;20439;-51
2021/03/30 12:36:13;;;;;;;3.17;1.50;;;21.10;42.20;;;;;;5062599;28;20065;-46
2021/03/30 12:38:39;;;;;;;2.08;1.48;;;21.10;42.20;;;;;;5054149;28;20032;-47
2021/03/30 12:41:04;;;;;;;4.72;1.45;;;21.10;42.30;;;;;;5064299;28;20041;-51
2021/03/30 12:43:30;;;;;;;2.67;1.52;;;21.10;42.30;;;;;;5052176;28;20036;-48
2021/03/30 12:45:55;;;;;;;2.70;1.38;;;21.10;42.30;;;;;;5063672;28;20048;-46
2021/03/30 12:48:21;;;;;;;3.67;2.05;;;21.10;42.40;;;;;;5060393;28;20032;-47
2021/03/30 12:50:47;;;;;;;1.90;1.45;;;21.10;42.40;;;;;;5058778;28;20047;-48
2021/03/30 12:53:12;;;;;;;3.08;1.75;;;21.10;42.50;;;;;;5050217;28;20098;-50
2021/03/30 12:55:38;;;;;;;2.50;1.50;;;21.10;42.50;;;;;;5057093;28;20072;-52
2021/03/30 12:58:04;;;;;;;3.22;1.50;;;21.10;42.60;;;;;;5069042;28;20033;-53
2021/03/30 13:00:30;;;;;;;3.22;1.75;;;21.10;42.50;;;;;;5067372;28;20060;-48
2021/03/30 13:02:55;;;;;;;2.88;1.77;;;21.10;42.50;;;;;;5058811;28;20119;-51
2021/03/30 13:05:21;;;;;;;3.58;1.55;;;21.10;42.50;;;;;;5050707;28;20531;-49
2021/03/30 13:07:47;;;;;;;2.67;1.45;;;21.10;42.60;;;;;;5067173;28;20036;-49